Carle Place, New York
Current Conditions -  °F | °C
As of 12:53 AM on Friday 26 Dec 2014 (Local Time) from KFRG Reporting Station
Clear Clear  
Wind Chill: 38°   Ceiling: Unl
Heat Index: 44°   Visibility: 10mi
Dew Point: 28°   Wind: 12mph
Humidity: 53%   Direction: 280°W
Pressure: 30.12"   Gusts: NA
Location:  40.75°N, 73.62°W
Report Text: KFRG 260553Z AUTO 28010KT 10SM CLR 07/M02 A3012 RMK AO2 SLP201 T00671022 10089 20061 51018
Loading
Personal Weather Stations






























Interactive Weather Map New forecast layout! Learn more

10-Day Weather Forecast

Advertisements
Track Severe Weather on mobile